sensor_id;sensor_type;location;lat;lon;timestamp;P1;durP1;ratioP1;P2;durP2;ratioP2
40046;SDS011;31510;48.122;11.576;2022-09-25T00:01:42;11.75;;;8.90;;
40046;SDS011;31510;48.122;11.576;2022-09-25T00:04:08;11.80;;;9.52;;
40046;SDS011;31510;48.122;11.576;2022-09-25T00:06:33;12.65;;;9.57;;
40046;SDS011;31510;48.122;11.576;2022-09-25T00:08:58;11.93;;;8.02;;
40046;SDS011;31510;48.122;11.576;2022-09-25T00:11:30;15.48;;;10.15;;
40046;SDS011;31510;48.122;11.576;2022-09-25T00:13:57;13.38;;;10.60;;
40046;SDS011;31510;48.122;11.576;2022-09-25T00:16:24;14.63;;;10.73;;
40046;SDS011;31510;48.122;11.576;2022-09-25T00:18:53;12.95;;;10.25;;
40046;SDS011;31510;48.122;11.576;2022-09-25T00:21:38;11.18;;;9.73;;
40046;SDS011;31510;48.122;11.576;2022-09-25T00:24:04;12.32;;;9.50;;
40046;SDS011;31510;48.122;11.576;2022-09-25T00:26:32;13.60;;;9.55;;
40046;SDS011;31510;48.122;11.576;2022-09-25T00:29:00;14.27;;;9.77;;
40046;SDS011;31510;48.122;11.576;2022-09-25T00:31:27;10.90;;;9.27;;
40046;SDS011;31510;48.122;11.576;2022-09-25T00:33:55;12.68;;;9.00;;
40046;SDS011;31510;48.122;11.576;2022-09-25T00:36:21;10.85;;;8.60;;
40046;SDS011;31510;48.122;11.576;2022-09-25T00:38:47;10.05;;;8.35;;
40046;SDS011;31510;48.122;11.576;2022-09-25T00:41:13;10.43;;;8.32;;
40046;SDS011;31510;48.122;11.576;2022-09-25T00:43:44;11.75;;;8.82;;
40046;SDS011;31510;48.122;11.576;2022-09-25T00:54:25;11.43;;;7.68;;
40046;SDS011;31510;48.122;11.576;2022-09-25T00:56:53;12.27;;;9.63;;
40046;SDS011;31510;48.122;11.576;2022-09-25T00:59:24;12.95;;;9.13;;
40046;SDS011;31510;48.122;11.576;2022-09-25T01:01:53;11.05;;;8.73;;
40046;SDS011;31510;48.122;11.576;2022-09-25T01:04:19;9.07;;;7.72;;
40046;SDS011;31510;48.122;11.576;2022-09-25T01:06:45;10.75;;;8.10;;
40046;SDS011;31510;48.122;11.576;2022-09-25T01:09:10;10.10;;;7.50;;
40046;SDS011;31510;48.122;11.576;2022-09-25T01:11:35;9.30;;;7.97;;
40046;SDS011;31510;48.122;11.576;2022-09-25T01:14:01;10.43;;;8.23;;
40046;SDS011;31510;48.122;11.576;2022-09-25T01:16:35;8.13;;;7.15;;
40046;SDS011;31510;48.122;11.576;2022-09-25T01:21:43;8.82;;;6.93;;
40046;SDS011;31510;48.122;11.576;2022-09-25T01:27:24;8.30;;;6.45;;
40046;SDS011;31510;48.122;11.576;2022-09-25T01:30:11;11.25;;;7.75;;
40046;SDS011;31510;48.122;11.576;2022-09-25T01:38:38;8.38;;;6.40;;
40046;SDS011;31510;48.122;11.576;2022-09-25T01:41:27;8.20;;;6.40;;
40046;SDS011;31510;48.122;11.576;2022-09-25T01:46:45;8.23;;;6.78;;
40046;SDS011;31510;48.122;11.576;2022-09-25T01:49:16;7.95;;;6.45;;
40046;SDS011;31510;48.122;11.576;2022-09-25T01:51:51;7.55;;;6.68;;
40046;SDS011;31510;48.122;11.576;2022-09-25T01:54:52;8.18;;;6.35;;
40046;SDS011;31510;48.122;11.576;2022-09-25T01:57:14;7.80;;;6.07;;
40046;SDS011;31510;48.122;11.576;2022-09-25T01:59:48;8.93;;;7.43;;
40046;SDS011;31510;48.122;11.576;2022-09-25T02:02:21;7.63;;;6.43;;
40046;SDS011;31510;48.122;11.576;2022-09-25T02:04:55;7.72;;;6.05;;
40046;SDS011;31510;48.122;11.576;2022-09-25T02:07:32;7.20;;;5.47;;
40046;SDS011;31510;48.122;11.576;2022-09-25T02:13:02;7.35;;;5.90;;
40046;SDS011;31510;48.122;11.576;2022-09-25T02:15:37;6.07;;;5.45;;
40046;SDS011;31510;48.122;11.576;2022-09-25T02:18:11;6.80;;;5.78;;
40046;SDS011;31510;48.122;11.576;2022-09-25T02:21:11;8.40;;;6.50;;
40046;SDS011;31510;48.122;11.576;2022-09-25T02:26:24;11.65;;;6.03;;
40046;SDS011;31510;48.122;11.576;2022-09-25T02:28:51;6.75;;;5.68;;
40046;SDS011;31510;48.122;11.576;2022-09-25T02:31:17;7.68;;;5.90;;
40046;SDS011;31510;48.122;11.576;2022-09-25T02:33:46;6.78;;;5.78;;
40046;SDS011;31510;48.122;11.576;2022-09-25T02:36:17;7.97;;;5.95;;
40046;SDS011;31510;48.122;11.576;2022-09-25T02:38:43;6.55;;;5.53;;
40046;SDS011;31510;48.122;11.576;2022-09-25T02:44:07;8.45;;;5.38;;
40046;SDS011;31510;48.122;11.576;2022-09-25T02:49:15;6.85;;;5.38;;
40046;SDS011;31510;48.122;11.576;2022-09-25T02:54:30;6.47;;;5.38;;
40046;SDS011;31510;48.122;11.576;2022-09-25T02:59:29;6.68;;;5.45;;
40046;SDS011;31510;48.122;11.576;2022-09-25T03:01:59;6.72;;;5.15;;
40046;SDS011;31510;48.122;11.576;2022-09-25T03:04:25;5.95;;;5.20;;
40046;SDS011;31510;48.122;11.576;2022-09-25T03:06:51;6.18;;;5.38;;
40046;SDS011;31510;48.122;11.576;2022-09-25T03:09:17;6.70;;;5.63;;
40046;SDS011;31510;48.122;11.576;2022-09-25T03:11:45;6.80;;;5.45;;
40046;SDS011;31510;48.122;11.576;2022-09-25T03:14:10;5.85;;;4.97;;
40046;SDS011;31510;48.122;11.576;2022-09-25T03:19:10;6.15;;;5.47;;
40046;SDS011;31510;48.122;11.576;2022-09-25T03:21:36;7.05;;;5.32;;
40046;SDS011;31510;48.122;11.576;2022-09-25T03:24:01;6.50;;;5.45;;
40046;SDS011;31510;48.122;11.576;2022-09-25T03:26:27;5.97;;;5.07;;
40046;SDS011;31510;48.122;11.576;2022-09-25T03:28:52;7.95;;;5.70;;
40046;SDS011;31510;48.122;11.576;2022-09-25T03:31:18;5.85;;;4.82;;
40046;SDS011;31510;48.122;11.576;2022-09-25T03:33:44;6.32;;;5.15;;
40046;SDS011;31510;48.122;11.576;2022-09-25T03:36:11;6.20;;;4.47;;
40046;SDS011;31510;48.122;11.576;2022-09-25T03:38:37;6.80;;;5.25;;
40046;SDS011;31510;48.122;11.576;2022-09-25T03:41:05;5.90;;;4.93;;
40046;SDS011;31510;48.122;11.576;2022-09-25T03:43:33;5.72;;;5.03;;
40046;SDS011;31510;48.122;11.576;2022-09-25T03:46:00;6.18;;;4.95;;
40046;SDS011;31510;48.122;11.576;2022-09-25T03:48:27;5.20;;;4.20;;
40046;SDS011;31510;48.122;11.576;2022-09-25T03:50:53;5.25;;;4.57;;
40046;SDS011;31510;48.122;11.576;2022-09-25T03:53:20;5.80;;;4.35;;
40046;SDS011;31510;48.122;11.576;2022-09-25T03:55:45;5.82;;;4.70;;
40046;SDS011;31510;48.122;11.576;2022-09-25T03:58:12;7.93;;;4.80;;
40046;SDS011;31510;48.122;11.576;2022-09-25T04:00:40;4.60;;;4.20;;
40046;SDS011;31510;48.122;11.576;2022-09-25T04:03:06;5.18;;;4.25;;
40046;SDS011;31510;48.122;11.576;2022-09-25T04:05:32;6.45;;;4.30;;
40046;SDS011;31510;48.122;11.576;2022-09-25T04:07:58;6.95;;;4.60;;
40046;SDS011;31510;48.122;11.576;2022-09-25T04:10:24;5.22;;;4.70;;
40046;SDS011;31510;48.122;11.576;2022-09-25T04:12:49;7.50;;;4.53;;
40046;SDS011;31510;48.122;11.576;2022-09-25T04:15:18;8.70;;;4.57;;
40046;SDS011;31510;48.122;11.576;2022-09-25T04:17:44;6.78;;;5.38;;
40046;SDS011;31510;48.122;11.576;2022-09-25T04:20:09;5.50;;;4.72;;
40046;SDS011;31510;48.122;11.576;2022-09-25T04:22:34;5.80;;;4.70;;
40046;SDS011;31510;48.122;11.576;2022-09-25T04:25:00;5.95;;;4.93;;
40046;SDS011;31510;48.122;11.576;2022-09-25T04:27:27;6.60;;;5.38;;
40046;SDS011;31510;48.122;11.576;2022-09-25T04:29:53;5.90;;;4.88;;
40046;SDS011;31510;48.122;11.576;2022-09-25T04:32:18;5.45;;;4.20;;
40046;SDS011;31510;48.122;11.576;2022-09-25T04:35:02;5.47;;;4.63;;
40046;SDS011;31510;48.122;11.576;2022-09-25T04:37:27;6.05;;;4.85;;
40046;SDS011;31510;48.122;11.576;2022-09-25T04:39:53;6.28;;;4.30;;
40046;SDS011;31510;48.122;11.576;2022-09-25T04:42:20;5.75;;;4.50;;
40046;SDS011;31510;48.122;11.576;2022-09-25T04:44:52;7.53;;;4.05;;
40046;SDS011;31510;48.122;11.576;2022-09-25T04:47:19;4.82;;;4.10;;
40046;SDS011;31510;48.122;11.576;2022-09-25T04:49:45;4.55;;;3.53;;
40046;SDS011;31510;48.122;11.576;2022-09-25T04:52:12;4.85;;;3.97;;
40046;SDS011;31510;48.122;11.576;2022-09-25T04:54:42;9.40;;;4.57;;
40046;SDS011;31510;48.122;11.576;2022-09-25T04:57:18;4.70;;;3.97;;
40046;SDS011;31510;48.122;11.576;2022-09-25T04:59:44;5.47;;;4.35;;
40046;SDS011;31510;48.122;11.576;2022-09-25T05:02:13;4.22;;;3.67;;
40046;SDS011;31510;48.122;11.576;2022-09-25T05:04:38;5.32;;;3.70;;
40046;SDS011;31510;48.122;11.576;2022-09-25T05:07:04;4.15;;;3.55;;
40046;SDS011;31510;48.122;11.576;2022-09-25T05:09:29;5.75;;;3.67;;
40046;SDS011;31510;48.122;11.576;2022-09-25T05:11:55;4.40;;;3.95;;
40046;SDS011;31510;48.122;11.576;2022-09-25T05:14:21;4.80;;;3.63;;
40046;SDS011;31510;48.122;11.576;2022-09-25T05:16:47;4.93;;;3.88;;
40046;SDS011;31510;48.122;11.576;2022-09-25T05:19:12;3.83;;;2.92;;
40046;SDS011;31510;48.122;11.576;2022-09-25T05:21:39;4.28;;;3.45;;
40046;SDS011;31510;48.122;11.576;2022-09-25T05:24:05;5.03;;;3.50;;
40046;SDS011;31510;48.122;11.576;2022-09-25T05:26:32;5.45;;;3.63;;
40046;SDS011;31510;48.122;11.576;2022-09-25T05:28:59;4.60;;;3.85;;
40046;SDS011;31510;48.122;11.576;2022-09-25T05:31:24;4.35;;;3.80;;
40046;SDS011;31510;48.122;11.576;2022-09-25T05:33:50;3.45;;;3.15;;
40046;SDS011;31510;48.122;11.576;2022-09-25T05:36:15;5.18;;;4.07;;
40046;SDS011;31510;48.122;11.576;2022-09-25T05:38:42;4.28;;;3.60;;
40046;SDS011;31510;48.122;11.576;2022-09-25T05:41:08;3.58;;;3.22;;
40046;SDS011;31510;48.122;11.576;2022-09-25T05:43:37;4.55;;;3.55;;
40046;SDS011;31510;48.122;11.576;2022-09-25T05:46:04;3.88;;;3.47;;
40046;SDS011;31510;48.122;11.576;2022-09-25T05:48:29;4.38;;;2.80;;
40046;SDS011;31510;48.122;11.576;2022-09-25T05:50:55;3.55;;;3.08;;
40046;SDS011;31510;48.122;11.576;2022-09-25T05:53:21;4.85;;;3.13;;
40046;SDS011;31510;48.122;11.576;2022-09-25T05:55:48;3.40;;;3.08;;
40046;SDS011;31510;48.122;11.576;2022-09-25T05:58:17;3.88;;;3.40;;
40046;SDS011;31510;48.122;11.576;2022-09-25T06:00:42;3.28;;;2.80;;
40046;SDS011;31510;48.122;11.576;2022-09-25T06:03:07;4.00;;;3.30;;
40046;SDS011;31510;48.122;11.576;2022-09-25T06:05:33;4.07;;;3.35;;
40046;SDS011;31510;48.122;11.576;2022-09-25T06:07:58;4.35;;;3.72;;
40046;SDS011;31510;48.122;11.576;2022-09-25T06:10:24;3.92;;;3.35;;
40046;SDS011;31510;48.122;11.576;2022-09-25T06:12:50;3.50;;;3.20;;
40046;SDS011;31510;48.122;11.576;2022-09-25T06:15:18;5.30;;;3.55;;
40046;SDS011;31510;48.122;11.576;2022-09-25T06:17:45;4.55;;;3.25;;
40046;SDS011;31510;48.122;11.576;2022-09-25T06:20:10;5.70;;;3.88;;
40046;SDS011;31510;48.122;11.576;2022-09-25T06:22:35;3.45;;;2.95;;
40046;SDS011;31510;48.122;11.576;2022-09-25T06:25:01;4.05;;;3.65;;
40046;SDS011;31510;48.122;11.576;2022-09-25T06:27:26;3.72;;;3.15;;
40046;SDS011;31510;48.122;11.576;2022-09-25T06:29:51;5.95;;;3.88;;
40046;SDS011;31510;48.122;11.576;2022-09-25T06:32:16;4.10;;;2.92;;
40046;SDS011;31510;48.122;11.576;2022-09-25T06:34:42;6.72;;;3.53;;
40046;SDS011;31510;48.122;11.576;2022-09-25T06:37:07;3.92;;;3.30;;
40046;SDS011;31510;48.122;11.576;2022-09-25T06:39:32;4.10;;;3.05;;
40046;SDS011;31510;48.122;11.576;2022-09-25T06:41:58;4.07;;;3.67;;
40046;SDS011;31510;48.122;11.576;2022-09-25T06:44:23;4.03;;;3.05;;
40046;SDS011;31510;48.122;11.576;2022-09-25T06:46:49;4.43;;;3.45;;
40046;SDS011;31510;48.122;11.576;2022-09-25T06:49:18;4.25;;;3.30;;
40046;SDS011;31510;48.122;11.576;2022-09-25T06:51:43;3.70;;;3.13;;
40046;SDS011;31510;48.122;11.576;2022-09-25T06:54:09;4.50;;;3.60;;
40046;SDS011;31510;48.122;11.576;2022-09-25T06:56:34;4.10;;;3.70;;
40046;SDS011;31510;48.122;11.576;2022-09-25T06:58:59;4.30;;;3.90;;
40046;SDS011;31510;48.122;11.576;2022-09-25T07:01:25;3.88;;;3.15;;
40046;SDS011;31510;48.122;11.576;2022-09-25T07:03:50;4.10;;;3.70;;
40046;SDS011;31510;48.122;11.576;2022-09-25T07:06:22;4.22;;;3.72;;
40046;SDS011;31510;48.122;11.576;2022-09-25T07:08:50;4.43;;;3.60;;
40046;SDS011;31510;48.122;11.576;2022-09-25T07:11:17;4.03;;;3.55;;
40046;SDS011;31510;48.122;11.576;2022-09-25T07:13:44;3.83;;;3.10;;
40046;SDS011;31510;48.122;11.576;2022-09-25T07:16:11;4.95;;;3.95;;
40046;SDS011;31510;48.122;11.576;2022-09-25T07:18:40;3.92;;;3.53;;
40046;SDS011;31510;48.122;11.576;2022-09-25T07:21:09;4.28;;;3.83;;
40046;SDS011;31510;48.122;11.576;2022-09-25T07:23:36;4.32;;;3.92;;
40046;SDS011;31510;48.122;11.576;2022-09-25T07:28:31;4.25;;;3.85;;
40046;SDS011;31510;48.122;11.576;2022-09-25T07:30:56;5.25;;;4.45;;
40046;SDS011;31510;48.122;11.576;2022-09-25T07:33:22;7.03;;;4.47;;
40046;SDS011;31510;48.122;11.576;2022-09-25T07:35:49;5.18;;;4.32;;
40046;SDS011;31510;48.122;11.576;2022-09-25T07:38:16;4.53;;;4.13;;
40046;SDS011;31510;48.122;11.576;2022-09-25T07:40:41;6.13;;;4.63;;
40046;SDS011;31510;48.122;11.576;2022-09-25T07:43:07;6.88;;;5.63;;
40046;SDS011;31510;48.122;11.576;2022-09-25T07:45:32;6.93;;;5.18;;
40046;SDS011;31510;48.122;11.576;2022-09-25T07:47:58;5.13;;;4.47;;
40046;SDS011;31510;48.122;11.576;2022-09-25T07:50:25;7.15;;;4.80;;
40046;SDS011;31510;48.122;11.576;2022-09-25T07:52:51;6.43;;;5.45;;
40046;SDS011;31510;48.122;11.576;2022-09-25T07:55:18;7.22;;;6.07;;
40046;SDS011;31510;48.122;11.576;2022-09-25T07:57:43;8.35;;;6.65;;
40046;SDS011;31510;48.122;11.576;2022-09-25T08:00:09;9.30;;;7.78;;
40046;SDS011;31510;48.122;11.576;2022-09-25T08:02:35;10.35;;;8.18;;
40046;SDS011;31510;48.122;11.576;2022-09-25T08:05:00;9.53;;;7.83;;
40046;SDS011;31510;48.122;11.576;2022-09-25T08:07:26;8.85;;;7.43;;
40046;SDS011;31510;48.122;11.576;2022-09-25T08:09:52;11.02;;;8.30;;
40046;SDS011;31510;48.122;11.576;2022-09-25T08:12:18;10.82;;;8.48;;
40046;SDS011;31510;48.122;11.576;2022-09-25T08:14:44;11.18;;;8.05;;
40046;SDS011;31510;48.122;11.576;2022-09-25T08:17:10;10.18;;;8.52;;
40046;SDS011;31510;48.122;11.576;2022-09-25T08:19:35;9.90;;;8.63;;
40046;SDS011;31510;48.122;11.576;2022-09-25T08:22:01;11.05;;;8.65;;
40046;SDS011;31510;48.122;11.576;2022-09-25T08:24:26;10.57;;;8.32;;
40046;SDS011;31510;48.122;11.576;2022-09-25T08:26:51;11.83;;;9.60;;
40046;SDS011;31510;48.122;11.576;2022-09-25T08:29:17;12.40;;;8.55;;
40046;SDS011;31510;48.122;11.576;2022-09-25T08:31:42;17.95;;;9.50;;
40046;SDS011;31510;48.122;11.576;2022-09-25T08:34:07;11.57;;;10.38;;
40046;SDS011;31510;48.122;11.576;2022-09-25T08:36:34;10.73;;;8.60;;
40046;SDS011;31510;48.122;11.576;2022-09-25T08:38:59;13.18;;;9.70;;
40046;SDS011;31510;48.122;11.576;2022-09-25T08:41:26;12.75;;;9.82;;
40046;SDS011;31510;48.122;11.576;2022-09-25T08:46:41;11.63;;;9.95;;
40046;SDS011;31510;48.122;11.576;2022-09-25T08:49:27;13.07;;;10.73;;
40046;SDS011;31510;48.122;11.576;2022-09-25T08:51:59;13.98;;;10.32;;
40046;SDS011;31510;48.122;11.576;2022-09-25T08:54:27;12.82;;;11.07;;
40046;SDS011;31510;48.122;11.576;2022-09-25T08:57:08;13.82;;;10.35;;
40046;SDS011;31510;48.122;11.576;2022-09-25T08:59:41;13.65;;;10.05;;
40046;SDS011;31510;48.122;11.576;2022-09-25T09:02:15;15.35;;;10.82;;
40046;SDS011;31510;48.122;11.576;2022-09-25T09:07:15;12.15;;;9.88;;
40046;SDS011;31510;48.122;11.576;2022-09-25T09:10:09;13.27;;;10.95;;
40046;SDS011;31510;48.122;11.576;2022-09-25T09:12:46;15.02;;;11.23;;
40046;SDS011;31510;48.122;11.576;2022-09-25T09:17:44;14.90;;;11.70;;
40046;SDS011;31510;48.122;11.576;2022-09-25T09:20:14;13.65;;;11.13;;
40046;SDS011;31510;48.122;11.576;2022-09-25T09:22:49;13.48;;;11.02;;
40046;SDS011;31510;48.122;11.576;2022-09-25T09:25:27;15.38;;;11.90;;
40046;SDS011;31510;48.122;11.576;2022-09-25T09:49:48;14.43;;;11.65;;
40046;SDS011;31510;48.122;11.576;2022-09-25T09:52:18;17.88;;;12.75;;
40046;SDS011;31510;48.122;11.576;2022-09-25T09:54:57;17.58;;;13.63;;
40046;SDS011;31510;48.122;11.576;2022-09-25T09:57:27;16.23;;;13.18;;
40046;SDS011;31510;48.122;11.576;2022-09-25T09:59:56;16.70;;;12.68;;
40046;SDS011;31510;48.122;11.576;2022-09-25T10:02:29;17.80;;;14.32;;
40046;SDS011;31510;48.122;11.576;2022-09-25T10:05:02;17.52;;;12.40;;
40046;SDS011;31510;48.122;11.576;2022-09-25T10:07:32;13.98;;;10.90;;
40046;SDS011;31510;48.122;11.576;2022-09-25T10:10:08;14.30;;;11.02;;
40046;SDS011;31510;48.122;11.576;2022-09-25T10:12:37;16.02;;;11.15;;
40046;SDS011;31510;48.122;11.576;2022-09-25T10:15:04;14.32;;;11.15;;
40046;SDS011;31510;48.122;11.576;2022-09-25T10:17:39;14.90;;;10.98;;
40046;SDS011;31510;48.122;11.576;2022-09-25T10:20:14;13.82;;;11.10;;
40046;SDS011;31510;48.122;11.576;2022-09-25T10:22:43;14.77;;;12.13;;
40046;SDS011;31510;48.122;11.576;2022-09-25T10:25:11;15.07;;;11.55;;
40046;SDS011;31510;48.122;11.576;2022-09-25T10:27:37;19.02;;;11.65;;
40046;SDS011;31510;48.122;11.576;2022-09-25T10:38:15;11.18;;;9.30;;
40046;SDS011;31510;48.122;11.576;2022-09-25T10:40:55;15.90;;;11.13;;
40046;SDS011;31510;48.122;11.576;2022-09-25T10:43:23;13.32;;;10.05;;
40046;SDS011;31510;48.122;11.576;2022-09-25T10:45:49;11.07;;;9.35;;
40046;SDS011;31510;48.122;11.576;2022-09-25T10:48:32;10.82;;;9.00;;
40046;SDS011;31510;48.122;11.576;2022-09-25T10:51:18;12.93;;;10.52;;
40046;SDS011;31510;48.122;11.576;2022-09-25T10:53:46;12.48;;;9.00;;
40046;SDS011;31510;48.122;11.576;2022-09-25T10:56:14;13.77;;;9.60;;
40046;SDS011;31510;48.122;11.576;2022-09-25T10:58:44;10.55;;;8.45;;
40046;SDS011;31510;48.122;11.576;2022-09-25T11:01:15;10.45;;;9.00;;
40046;SDS011;31510;48.122;11.576;2022-09-25T11:09:07;11.98;;;9.13;;
40046;SDS011;31510;48.122;11.576;2022-09-25T11:11:38;12.07;;;9.70;;
40046;SDS011;31510;48.122;11.576;2022-09-25T11:14:06;11.88;;;8.82;;
40046;SDS011;31510;48.122;11.576;2022-09-25T11:16:45;11.57;;;9.68;;
40046;SDS011;31510;48.122;11.576;2022-09-25T11:19:33;9.95;;;8.55;;
40046;SDS011;31510;48.122;11.576;2022-09-25T11:24:46;9.85;;;7.68;;
40046;SDS011;31510;48.122;11.576;2022-09-25T11:35:18;8.80;;;7.72;;
40046;SDS011;31510;48.122;11.576;2022-09-25T11:37:51;10.32;;;7.95;;
40046;SDS011;31510;48.122;11.576;2022-09-25T11:40:28;9.32;;;7.25;;
40046;SDS011;31510;48.122;11.576;2022-09-25T11:43:15;7.05;;;6.25;;
40046;SDS011;31510;48.122;11.576;2022-09-25T11:45:49;9.82;;;7.65;;
40046;SDS011;31510;48.122;11.576;2022-09-25T11:54:13;9.82;;;7.18;;
40046;SDS011;31510;48.122;11.576;2022-09-25T11:59:43;10.30;;;8.57;;
40046;SDS011;31510;48.122;11.576;2022-09-25T12:11:14;7.55;;;5.80;;
40046;SDS011;31510;48.122;11.576;2022-09-25T12:14:25;8.07;;;5.87;;
40046;SDS011;31510;48.122;11.576;2022-09-25T12:22:13;12.65;;;5.55;;
40046;SDS011;31510;48.122;11.576;2022-09-25T12:24:49;8.10;;;6.32;;
40046;SDS011;31510;48.122;11.576;2022-09-25T12:27:29;11.50;;;8.75;;
40046;SDS011;31510;48.122;11.576;2022-09-25T12:30:07;9.85;;;7.43;;
40046;SDS011;31510;48.122;11.576;2022-09-25T12:41:17;10.38;;;7.15;;
40046;SDS011;31510;48.122;11.576;2022-09-25T12:48:59;9.45;;;6.97;;
40046;SDS011;31510;48.122;11.576;2022-09-25T12:54:05;10.80;;;8.15;;
40046;SDS011;31510;48.122;11.576;2022-09-25T13:03:15;10.73;;;8.48;;
40046;SDS011;31510;48.122;11.576;2022-09-25T13:05:36;8.38;;;7.43;;
40046;SDS011;31510;48.122;11.576;2022-09-25T13:08:17;10.00;;;7.05;;
40046;SDS011;31510;48.122;11.576;2022-09-25T13:11:04;10.55;;;7.22;;
40046;SDS011;31510;48.122;11.576;2022-09-25T13:13:44;10.07;;;7.38;;
40046;SDS011;31510;48.122;11.576;2022-09-25T13:16:13;10.23;;;7.25;;
40046;SDS011;31510;48.122;11.576;2022-09-25T13:18:45;10.85;;;8.45;;
40046;SDS011;31510;48.122;11.576;2022-09-25T13:21:25;8.68;;;6.63;;
40046;SDS011;31510;48.122;11.576;2022-09-25T13:23:55;10.13;;;7.97;;
40046;SDS011;31510;48.122;11.576;2022-09-25T13:26:22;11.55;;;8.40;;
40046;SDS011;31510;48.122;11.576;2022-09-25T13:29:02;10.90;;;8.15;;
40046;SDS011;31510;48.122;11.576;2022-09-25T13:31:32;14.82;;;8.82;;
40046;SDS011;31510;48.122;11.576;2022-09-25T13:36:48;11.40;;;8.57;;
40046;SDS011;31510;48.122;11.576;2022-09-25T13:42:42;10.93;;;8.25;;
40046;SDS011;31510;48.122;11.576;2022-09-25T13:47:42;9.57;;;8.57;;
40046;SDS011;31510;48.122;11.576;2022-09-25T13:50:25;12.48;;;9.35;;
40046;SDS011;31510;48.122;11.576;2022-09-25T13:55:42;11.13;;;8.80;;
40046;SDS011;31510;48.122;11.576;2022-09-25T13:58:27;10.43;;;8.27;;
40046;SDS011;31510;48.122;11.576;2022-09-25T14:00:58;14.80;;;9.43;;
40046;SDS011;31510;48.122;11.576;2022-09-25T14:08:21;15.50;;;10.02;;
40046;SDS011;31510;48.122;11.576;2022-09-25T14:10:50;14.30;;;10.57;;
40046;SDS011;31510;48.122;11.576;2022-09-25T14:13:18;14.45;;;9.68;;
40046;SDS011;31510;48.122;11.576;2022-09-25T14:15:47;14.57;;;10.10;;
40046;SDS011;31510;48.122;11.576;2022-09-25T14:18:16;15.02;;;10.18;;
40046;SDS011;31510;48.122;11.576;2022-09-25T14:20:49;15.15;;;10.35;;
40046;SDS011;31510;48.122;11.576;2022-09-25T14:23:24;14.95;;;11.02;;
40046;SDS011;31510;48.122;11.576;2022-09-25T14:25:56;17.90;;;11.95;;
40046;SDS011;31510;48.122;11.576;2022-09-25T14:28:26;14.93;;;10.50;;
40046;SDS011;31510;48.122;11.576;2022-09-25T14:33:38;14.30;;;10.25;;
40046;SDS011;31510;48.122;11.576;2022-09-25T14:36:12;14.53;;;10.43;;
40046;SDS011;31510;48.122;11.576;2022-09-25T14:41:45;12.38;;;9.98;;
40046;SDS011;31510;48.122;11.576;2022-09-25T14:46:57;14.73;;;11.82;;
40046;SDS011;31510;48.122;11.576;2022-09-25T14:49:30;15.10;;;11.07;;
40046;SDS011;31510;48.122;11.576;2022-09-25T14:52:02;14.65;;;10.27;;
40046;SDS011;31510;48.122;11.576;2022-09-25T14:54:32;13.50;;;9.95;;
40046;SDS011;31510;48.122;11.576;2022-09-25T14:57:00;13.83;;;11.37;;
40046;SDS011;31510;48.122;11.576;2022-09-25T14:59:37;14.55;;;10.38;;
40046;SDS011;31510;48.122;11.576;2022-09-25T15:02:16;13.15;;;8.85;;
40046;SDS011;31510;48.122;11.576;2022-09-25T15:04:46;14.30;;;10.15;;
40046;SDS011;31510;48.122;11.576;2022-09-25T15:09:42;11.95;;;8.93;;
40046;SDS011;31510;48.122;11.576;2022-09-25T15:12:25;14.15;;;9.90;;
40046;SDS011;31510;48.122;11.576;2022-09-25T15:15:06;11.50;;;9.00;;
40046;SDS011;31510;48.122;11.576;2022-09-25T15:20:08;12.07;;;9.68;;
40046;SDS011;31510;48.122;11.576;2022-09-25T15:22:38;13.30;;;8.73;;
40046;SDS011;31510;48.122;11.576;2022-09-25T15:25:04;12.85;;;9.88;;
40046;SDS011;31510;48.122;11.576;2022-09-25T15:27:32;13.20;;;10.10;;
40046;SDS011;31510;48.122;11.576;2022-09-25T15:29:59;14.90;;;10.75;;
40046;SDS011;31510;48.122;11.576;2022-09-25T15:32:28;11.48;;;9.27;;
40046;SDS011;31510;48.122;11.576;2022-09-25T15:37:39;11.40;;;9.40;;
40046;SDS011;31510;48.122;11.576;2022-09-25T15:40:16;13.43;;;9.88;;
40046;SDS011;31510;48.122;11.576;2022-09-25T15:42:47;13.90;;;10.15;;
40046;SDS011;31510;48.122;11.576;2022-09-25T15:48:11;22.75;;;13.32;;
40046;SDS011;31510;48.122;11.576;2022-09-25T15:50:45;14.02;;;10.98;;
40046;SDS011;31510;48.122;11.576;2022-09-25T15:53:47;14.55;;;10.98;;
40046;SDS011;31510;48.122;11.576;2022-09-25T15:56:22;16.58;;;12.57;;
40046;SDS011;31510;48.122;11.576;2022-09-25T15:58:52;17.58;;;12.05;;
40046;SDS011;31510;48.122;11.576;2022-09-25T16:01:25;17.55;;;12.50;;
40046;SDS011;31510;48.122;11.576;2022-09-25T16:04:19;14.90;;;11.18;;
40046;SDS011;31510;48.122;11.576;2022-09-25T16:07:21;17.80;;;12.40;;
40046;SDS011;31510;48.122;11.576;2022-09-25T16:09:49;17.17;;;13.05;;
40046;SDS011;31510;48.122;11.576;2022-09-25T16:14:51;16.17;;;12.68;;
40046;SDS011;31510;48.122;11.576;2022-09-25T16:17:32;16.55;;;13.13;;
40046;SDS011;31510;48.122;11.576;2022-09-25T16:20:06;18.70;;;12.73;;
40046;SDS011;31510;48.122;11.576;2022-09-25T16:22:48;16.95;;;12.90;;
40046;SDS011;31510;48.122;11.576;2022-09-25T16:25:17;17.10;;;12.07;;
40046;SDS011;31510;48.122;11.576;2022-09-25T16:27:48;17.75;;;13.05;;
40046;SDS011;31510;48.122;11.576;2022-09-25T16:30:14;18.58;;;14.00;;
40046;SDS011;31510;48.122;11.576;2022-09-25T16:32:51;20.77;;;13.82;;
40046;SDS011;31510;48.122;11.576;2022-09-25T16:35:37;17.85;;;13.35;;
40046;SDS011;31510;48.122;11.576;2022-09-25T16:38:05;19.80;;;14.00;;
40046;SDS011;31510;48.122;11.576;2022-09-25T16:40:35;24.13;;;13.90;;
40046;SDS011;31510;48.122;11.576;2022-09-25T16:43:02;19.33;;;13.10;;
40046;SDS011;31510;48.122;11.576;2022-09-25T16:45:30;20.50;;;14.65;;
40046;SDS011;31510;48.122;11.576;2022-09-25T16:47:58;22.63;;;15.90;;
40046;SDS011;31510;48.122;11.576;2022-09-25T16:50:44;22.50;;;15.35;;
40046;SDS011;31510;48.122;11.576;2022-09-25T16:53:09;19.25;;;14.45;;
40046;SDS011;31510;48.122;11.576;2022-09-25T16:55:39;19.08;;;14.80;;
40046;SDS011;31510;48.122;11.576;2022-09-25T16:58:11;17.45;;;14.13;;
40046;SDS011;31510;48.122;11.576;2022-09-25T17:00:36;19.67;;;14.75;;
40046;SDS011;31510;48.122;11.576;2022-09-25T17:03:01;17.92;;;13.90;;
40046;SDS011;31510;48.122;11.576;2022-09-25T17:05:28;17.17;;;12.95;;
40046;SDS011;31510;48.122;11.576;2022-09-25T17:07:55;19.40;;;14.10;;
40046;SDS011;31510;48.122;11.576;2022-09-25T17:10:25;16.38;;;13.85;;
40046;SDS011;31510;48.122;11.576;2022-09-25T17:12:53;17.35;;;13.48;;
40046;SDS011;31510;48.122;11.576;2022-09-25T17:15:21;17.88;;;14.23;;
40046;SDS011;31510;48.122;11.576;2022-09-25T17:17:50;18.00;;;14.07;;
40046;SDS011;31510;48.122;11.576;2022-09-25T17:20:22;15.05;;;12.85;;
40046;SDS011;31510;48.122;11.576;2022-09-25T17:22:52;22.73;;;13.40;;
40046;SDS011;31510;48.122;11.576;2022-09-25T17:28:02;16.52;;;14.45;;
40046;SDS011;31510;48.122;11.576;2022-09-25T17:30:29;18.13;;;12.55;;
40046;SDS011;31510;48.122;11.576;2022-09-25T17:32:55;15.85;;;12.82;;
40046;SDS011;31510;48.122;11.576;2022-09-25T17:35:25;15.00;;;12.13;;
40046;SDS011;31510;48.122;11.576;2022-09-25T17:37:56;16.55;;;12.63;;
40046;SDS011;31510;48.122;11.576;2022-09-25T17:40:22;17.52;;;13.25;;
40046;SDS011;31510;48.122;11.576;2022-09-25T17:42:47;19.63;;;15.07;;
40046;SDS011;31510;48.122;11.576;2022-09-25T17:45:35;20.40;;;15.48;;